createdAt,value
2022-11-05T00:05:37.181Z,36.4
2022-11-05T00:11:28.349Z,29.9
2022-11-05T00:17:23.839Z,27.3
2022-11-05T00:23:16.360Z,34
2022-11-05T00:29:09.952Z,34.8
2022-11-05T00:35:01.941Z,33.8
2022-11-05T00:40:55.558Z,45.9
2022-11-05T00:46:49.222Z,43.1
2022-11-05T00:52:44.245Z,41.6
2022-11-05T00:58:40.206Z,44.7
2022-11-05T01:04:31.494Z,45.8
2022-11-05T01:10:22.884Z,60.7
2022-11-05T01:16:22.763Z,48.4
2022-11-05T01:22:14.981Z,44.7
2022-11-05T01:28:07.971Z,44.4
2022-11-05T01:34:05.677Z,44.8
2022-11-05T01:39:58.248Z,44.8
2022-11-05T01:45:50.156Z,45.9
2022-11-05T01:57:50.213Z,44.9
2022-11-05T02:03:46.759Z,48
2022-11-05T02:09:48.831Z,61.3
2022-11-05T02:15:40.849Z,51.8
2022-11-05T02:21:35.479Z,51.7
2022-11-05T02:27:27.709Z,60
2022-11-05T02:33:28.771Z,51.1
2022-11-05T02:39:32.216Z,54.7
2022-11-05T02:45:26.497Z,48.8
2022-11-05T02:51:30.838Z,47.2
2022-11-05T02:57:27.313Z,45.7
2022-11-05T03:03:22.994Z,45.1
2022-11-05T03:09:15.222Z,45.4
2022-11-05T03:15:19.758Z,41.6
2022-11-05T03:21:10.920Z,46.3
2022-11-05T03:27:01.976Z,46.9
2022-11-05T03:33:08.137Z,44.9
2022-11-05T03:39:08.846Z,46.3
2022-11-05T03:51:10.081Z,55.7
2022-11-05T03:57:05.817Z,56.6
2022-11-05T04:02:56.974Z,53.6
2022-11-05T04:08:51.909Z,49.8
2022-11-05T04:14:57.323Z,50.8
2022-11-05T04:21:12.367Z,57.8
2022-11-05T04:27:02.287Z,52.9
2022-11-05T04:32:55.573Z,58.6
2022-11-05T04:38:55.972Z,53
2022-11-05T04:45:05.069Z,55.4
2022-11-05T04:50:58.430Z,57.7
2022-11-05T04:57:09.754Z,55.5
2022-11-05T05:03:03.592Z,54.7
2022-11-05T05:09:13.642Z,52.8
2022-11-05T05:15:04.564Z,54.3
2022-11-05T05:20:56.433Z,55.8
2022-11-05T05:26:48.756Z,53.5
2022-11-05T05:33:07.428Z,51.3
2022-11-05T05:38:57.372Z,49
2022-11-05T05:44:59.269Z,50.7
2022-11-05T05:50:50.863Z,48.6
2022-11-05T05:56:42.774Z,49.3
2022-11-05T06:02:40.807Z,47.8
2022-11-05T06:08:34.600Z,44.3
2022-11-05T06:14:27.872Z,46.6
2022-11-05T06:20:20.288Z,48.3
2022-11-05T06:26:20.167Z,45.4
2022-11-05T06:32:11.338Z,37.9
2022-11-05T06:38:03.085Z,44.7
2022-11-05T06:43:58.309Z,42
2022-11-05T06:50:01.054Z,41.8
2022-11-05T06:55:53.368Z,40.4
2022-11-05T07:01:54.214Z,37.3
2022-11-05T07:07:47.346Z,37.7
2022-11-05T07:13:38.740Z,41.1
2022-11-05T07:19:31.930Z,41.3
2022-11-05T07:25:26.509Z,39.8
2022-11-05T07:31:24.813Z,39
2022-11-05T07:37:30.253Z,40.2
2022-11-05T07:43:34.507Z,39.2
2022-11-05T07:49:30.327Z,36
2022-11-05T07:55:24.239Z,36.6
2022-11-05T08:01:21.204Z,42.1
2022-11-05T08:07:18.417Z,44.5
2022-11-05T08:13:12.469Z,46.7
2022-11-05T08:19:05.600Z,45.4
2022-11-05T08:25:06.876Z,49.7
2022-11-05T08:31:01.521Z,44.9
2022-11-05T08:36:56.507Z,43.4
2022-11-05T08:42:51.975Z,41.6
2022-11-05T10:02:00.464Z,22.1
2022-11-05T10:08:09.991Z,29.3
2022-11-05T10:14:05.140Z,17
2022-11-05T10:19:56.811Z,17
2022-11-05T10:25:50.055Z,11.1
2022-11-05T10:31:41.555Z,12.2
2022-11-05T10:37:31.468Z,13.4
2022-11-05T10:43:29.291Z,11.9
2022-11-05T10:49:24.374Z,12.1
2022-11-05T10:55:15.586Z,10.9
2022-11-05T11:01:08.330Z,11.1
2022-11-05T11:06:59.717Z,9.6
2022-11-05T11:12:53.267Z,9.8
2022-11-05T11:18:48.029Z,13.1
2022-11-05T11:30:47.874Z,9.6
2022-11-05T11:36:38.463Z,8.3
2022-11-05T11:42:35.029Z,9.3
2022-11-05T11:48:36.860Z,11.1
2022-11-05T11:54:49.543Z,12.4
2022-11-05T12:00:45.525Z,7.5
2022-11-05T12:06:35.564Z,9.8
2022-11-05T12:12:26.696Z,8
2022-11-05T12:18:17.222Z,8.1
2022-11-05T12:24:09.266Z,8.5
2022-11-05T12:30:00.509Z,8.3
2022-11-05T12:36:00.874Z,6.8
2022-11-05T12:41:57.817Z,9.5
2022-11-05T12:47:51.455Z,7.5
2022-11-05T12:53:42.279Z,7.7
2022-11-05T12:59:31.656Z,8.5
2022-11-05T13:05:23.054Z,10
2022-11-05T13:11:13.650Z,6.8
2022-11-05T13:17:04.550Z,10.2
2022-11-05T13:22:54.905Z,8
2022-11-05T13:28:44.898Z,7.5
2022-11-05T13:34:43.115Z,8.5
2022-11-05T13:40:33.613Z,7.1
2022-11-05T13:46:32.486Z,5.6
2022-11-05T13:52:22.484Z,7.9
2022-11-05T13:59:24.650Z,7.4
2022-11-05T14:05:18.104Z,10.1
2022-11-05T14:11:16.947Z,7.4
2022-11-05T14:17:10.047Z,6.9
2022-11-05T14:23:06.061Z,6.9
2022-11-05T14:29:11.818Z,4.9
2022-11-05T14:35:02.174Z,7.4
2022-11-05T14:40:53.451Z,6.6
2022-11-05T14:46:44.399Z,6.7
2022-11-05T14:52:35.031Z,7.4
2022-11-05T14:58:26.017Z,11.3
2022-11-05T15:04:21.017Z,6.9
2022-11-05T15:10:16.550Z,4.3
2022-11-05T15:16:06.817Z,5.8
2022-11-05T15:21:57.767Z,7
2022-11-05T15:27:49.973Z,7.5
2022-11-05T15:33:42.893Z,8.7
2022-11-05T15:39:36.289Z,8.9
2022-11-05T15:45:29.209Z,6.8
2022-11-05T15:51:21.306Z,7.2
2022-11-05T15:57:18.827Z,7.3
2022-11-05T16:03:11.855Z,9.7
2022-11-05T16:09:20.714Z,9.8
2022-11-05T16:15:13.111Z,10.5
2022-11-05T16:21:07.106Z,12.1
2022-11-05T16:27:21.503Z,12.7
2022-11-05T16:33:10.909Z,10.1
2022-11-05T16:39:02.538Z,10.7
2022-11-05T16:44:58.266Z,9.1
2022-11-05T16:50:53.737Z,9.5
2022-11-05T16:57:06.222Z,9.5
2022-11-05T17:03:11.236Z,10.2
2022-11-05T17:16:01.105Z,15.1
2022-11-05T17:21:52.849Z,11.3
2022-11-05T17:27:53.131Z,14
2022-11-05T17:46:53.571Z,16.3
2022-11-05T17:52:42.841Z,15.1
2022-11-05T17:58:34.383Z,15.5
2022-11-05T18:04:24.869Z,16.3
2022-11-05T18:10:15.804Z,17.3
2022-11-05T18:16:07.600Z,19
2022-11-05T18:21:59.241Z,24.7
2022-11-05T18:27:51.672Z,25.2
2022-11-05T18:33:41.566Z,35.3
2022-11-05T18:39:38.275Z,36.6
2022-11-05T18:45:34.108Z,33.5
2022-11-05T18:51:25.058Z,20.5
2022-11-05T18:57:16.659Z,16.1
2022-11-05T19:03:07.584Z,16.4
2022-11-05T19:08:57.647Z,18.9
2022-11-05T19:14:49.202Z,19.9
2022-11-05T19:20:43.365Z,19.2
2022-11-05T19:26:37.771Z,21.6
2022-11-05T19:32:29.812Z,20
2022-11-05T19:38:20.909Z,19.9
2022-11-05T19:44:12.411Z,21.1
2022-11-05T19:50:03.587Z,19.3
2022-11-05T19:55:54.097Z,20.1
2022-11-05T20:01:47.402Z,19.6
2022-11-05T20:07:38.875Z,22.5
2022-11-05T20:13:30.500Z,23.5
2022-11-05T20:19:20.875Z,23.4
2022-11-05T20:25:11.040Z,23.4
2022-11-05T20:31:01.371Z,24.4
2022-11-05T20:36:52.200Z,26.3
2022-11-05T20:42:43.640Z,22.7
2022-11-05T20:48:34.890Z,24.9
2022-11-05T20:54:26.180Z,24.9
2022-11-05T21:00:16.575Z,25.3
2022-11-05T21:06:07.575Z,26.8
2022-11-05T21:11:58.816Z,23.8
2022-11-05T21:17:50.549Z,22.1
2022-11-05T21:23:41.772Z,22.9
2022-11-05T21:29:33.566Z,25.9
2022-11-05T21:35:24.594Z,23.5
2022-11-05T21:41:15.507Z,22.4
2022-11-05T21:47:06.090Z,22.2
2022-11-05T21:52:57.828Z,22.7
2022-11-05T21:58:48.473Z,23.2
2022-11-05T22:04:37.445Z,22.7
2022-11-05T22:10:27.872Z,23.4
2022-11-05T22:16:17.953Z,24.5
2022-11-05T22:22:09.326Z,20.2
2022-11-05T22:28:01.322Z,19.9
2022-11-05T22:33:53.466Z,20.2
2022-11-05T22:39:43.275Z,18.5
2022-11-05T22:45:37.732Z,20.1
2022-11-05T22:51:29.618Z,16.9
2022-11-05T22:57:19.298Z,19.3
2022-11-05T23:03:12.472Z,19.8
2022-11-05T23:09:03.717Z,19.6
2022-11-05T23:14:56.860Z,18.3
2022-11-05T23:20:48.034Z,22.4
2022-11-05T23:26:39.450Z,21.2
2022-11-05T23:32:31.619Z,20.9
2022-11-05T23:38:22.465Z,22.6
2022-11-05T23:44:13.207Z,22.8
2022-11-05T23:50:03.150Z,19.8
2022-11-05T23:55:53.163Z,22.4
